This is the latest recevied weather packets stored in our database for station/object N2XP-3. If no packets are shown the sender has not sent any weather packets the latest 10 day(s).
| Time | Temp. | Humidity | Pressure | Rain* | Wind** | Luminosity | Snow |
|---|---|---|---|---|---|---|---|
| 1777239696 | 16.11° C | 59% | 1016.9 hPa | 0 mm | 0 m/s | - | - |
| 1777239485 | 16.11° C | 57% | 1016.9 hPa | 0 mm | 0.45 m/s, 131° | - | - |
| 1777239393 | 16.11° C | 57% | 1016.9 hPa | 0 mm | 0.45 m/s, 131° | - | - |
| 1777239094 | 16.67° C | 57% | 1017 hPa | 0 mm | 1.34 m/s, 149° | - | - |
| 1777238791 | 16.67° C | 57% | 1016.9 hPa | 0 mm | 0 m/s | - | - |
| 1777238528 | 16.67° C | 57% | 1016.9 hPa | 0 mm | 0 m/s | - | - |
| 1777238491 | 16.67° C | 57% | 1016.9 hPa | 0 mm | 0 m/s | - | - |
| 1777238192 | 16.11° C | 57% | 1016.9 hPa | 0 mm | 1.34 m/s, 65° | - | - |
| 1777237885 | 16.11° C | 57% | 1016.9 hPa | 0 mm | 0 m/s | - | - |
| 1777237286 | 16.67° C | 57% | 1016.8 hPa | 0 mm | 0 m/s | - | - |
| 1777236983 | 16.67° C | 56% | 1016.6 hPa | 0 mm | 1.79 m/s, 52° | - | - |
| 1777236683 | 16.67° C | 56% | 1016.6 hPa | 0 mm | 0 m/s | - | - |
| 1777236077 | 17.22° C | 56% | 1016.5 hPa | 0 mm | 0 m/s | - | - |
| 1777235172 | 16.67° C | 56% | 1016.5 hPa | 0 mm | 0.45 m/s, 200° | - | - |
| 1777234872 | 16.67° C | 55% | 1016.5 hPa | 0 mm | 0 m/s | - | - |
| 1777234572 | 16.67° C | 54% | 1016.5 hPa | 0 mm | 0.45 m/s, 77° | - | - |
| 1777234263 | 16.67° C | 54% | 1016.4 hPa | 0 mm | 0 m/s | - | - |
| 1777233360 | 17.22° C | 54% | 1016.5 hPa | 0 mm | 0.89 m/s, 73° | - | - |
| 1777233060 | 17.22° C | 54% | 1016.5 hPa | 0 mm | 0.89 m/s, 76° | - | - |
| 1777232761 | 17.22° C | 53% | 1016.5 hPa | 0 mm | 0 m/s | - | - |
| 1777232456 | 17.22° C | 53% | 1016.6 hPa | 0 mm | 0.45 m/s, 91° | - | - |
| 1777232156 | 17.78° C | 54% | 1016.6 hPa | 0 mm | 0.45 m/s, 165° | - | - |
| 1777231252 | 17.22° C | 54% | 1016.6 hPa | 0 mm | 1.34 m/s, 111° | - | - |
| 1777230953 | 17.22° C | 54% | 1016.5 hPa | 0 mm | 0.45 m/s, 131° | - | - |
| 1777230647 | 17.22° C | 53% | 1016.6 hPa | 0 mm | 0.89 m/s, 114° | - | - |
* Rain latest hour (hover to see other rain measurements)
** Current wind speed in m/s (hover to see current wind gust speed)